Aviation Digital Data Service (ADDS)

Output produced by TAFs form (0330 UTC 01 August 2015)
found at http://aviationweather.gov/adds/tafs/
 
KDRO 312337Z 0100/0124 14008KT P6SM VCTS BKN090CB 
     TEMPO 0100/0103 VRB15G25KT -TSRA SCT060CB BKN080 
     FM010300 05006KT P6SM VCSH SCT070 BKN100 
     FM011300 VRB03KT P6SM SCT090 BKN120 
     FM011800 22008KT P6SM BKN080 OVC120 
     FM012100 22010G18KT P6SM VCTS BKN070CB OVC120